Currently 49°F in Moreno Valley, California, USA
49°F
49°F / 49°F
1 mph S
0.00"
Monday, February 20, 2017 2:53 AM PST

Moreno Valley, California Weather Summary
Last 36 Hours

Temperature Winds Hourly Humidity Dewpoint
Time Report Norm Report Norm Max Gusts Precip. Rpt. Norm Rpt. Norm Pressure
1Mon 02:53 AM  48.7°F  49°F  1 mph S  2 mph  4 mph  0.00"  97%  74%  48°F  41°F  28.29"
3Mon 02:41 AM  48.6°F  49°F  calm  2 mph  6 mph  ----  97%  74%  48°F  41°F  28.28"
Mon 02:00 AM  48.7°F  49°F  calm  2 mph  7 mph  0.00"  97%  74%  48°F  41°F  28.28"
Mon 01:00 AM  49.0°F  50°F  5 mph SE  2 mph  7 mph  0.00"  96%  73%  48°F  41°F  28.27"
2Mon 12:01 AM  49.2°F  50°F  3 mph SE  2 mph  6 mph  ----  96%  74%  48°F  42°F  28.28"
Mon 12:00 AM  49.2°F  50°F  2 mph SE  2 mph  8 mph  0.00"  96%  74%  48°F  42°F  28.28"
Sun 11:00 PM  49.3°F  51°F  4 mph SE  2 mph  8 mph  0.00"  96%  72%  48°F  42°F  28.27"
Sun 10:00 PM  49.5°F  52°F  3 mph SE  2 mph  8 mph  0.00"  96%  71%  48°F  42°F  28.26"
Sun 09:00 PM  49.6°F  53°F  2 mph S  2 mph  9 mph  0.00"  96%  68%  48°F  42°F  28.23"
Sun 08:00 PM  49.5°F  54°F  4 mph SE  2 mph  7 mph  0.01"  97%  65%  49°F  42°F  28.22"
Sun 07:00 PM  49.9°F  56°F  calm  3 mph  8 mph  0.00"  97%  61%  49°F  42°F  28.19"
Sun 06:00 PM  50.8°F  58°F  3 mph S  3 mph  9 mph  0.00"  96%  56%  50°F  42°F  28.15"
Sun 05:00 PM  51.9°F  62°F  3 mph SE  4 mph  9 mph  0.00"  95%  48%  50°F  42°F  28.13"
Sun 04:00 PM  52.5°F  65°F  6 mph SE  5 mph  10 mph  0.00"  95%  43%  51°F  41°F  28.11"
Sun 03:00 PM  53.1°F  66°F  5 mph S  5 mph  12 mph  0.00"  95%  41%  52°F  41°F  28.10"
Sun 02:00 PM  54.0°F  66°F  6 mph SE  6 mph  10 mph  0.00"  95%  41%  53°F  41°F  28.10"
Sun 01:00 PM  55.1°F  65°F  3 mph SE  5 mph  10 mph  0.00"  92%  43%  53°F  41°F  28.09"
Sun 12:00 PM  55.2°F  64°F  calm  5 mph  6 mph  0.00"  91%  46%  52°F  42°F  28.09"
Sun 11:00 AM  53.1°F  62°F  5 mph SW  4 mph  5 mph  0.00"  96%  50%  52°F  42°F  28.09"
Sun 10:00 AM  52.0°F  59°F  3 mph S  3 mph  5 mph  0.00"  97%  56%  51°F  43°F  28.07"
Sun 09:00 AM  50.5°F  56°F  2 mph S  3 mph  6 mph  0.00"  99%  64%  50°F  44°F  28.04"
Sun 08:00 AM  49.5°F  53°F  calm  2 mph  8 mph  0.00"  99%  69%  49°F  43°F  28.02"
Sun 07:00 AM  49.3°F  48°F  calm  2 mph  7 mph  0.00"  99%  74%  49°F  40°F  27.98"
Sun 06:00 AM  49.5°F  48°F  calm  1 mph  7 mph  0.00"  99%  74%  49°F  39°F  27.97"
Sun 05:00 AM  49.7°F  48°F  calm  2 mph  6 mph  0.00"  99%  75%  49°F  40°F  27.95"
Sun 04:00 AM  50.2°F  49°F  1 mph S  2 mph  6 mph  0.00"  99%  73%  50°F  40°F  27.92"
Sun 03:00 AM  50.3°F  49°F  calm  2 mph  none  0.00"  99%  73%  50°F  40°F  27.91"
Sun 02:00 AM  50.4°F  49°F  calm  2 mph  4 mph  0.00"  99%  73%  50°F  41°F  27.89"
Sun 01:00 AM  49.9°F  50°F  calm  2 mph  6 mph  0.00"  98%  72%  49°F  41°F  27.89"
Sun 12:00 AM  50.1°F  50°F  calm  2 mph  7 mph  0.00"  99%  72%  50°F  41°F  27.88"
Sat 11:00 PM  50.9°F  51°F  5 mph NW  2 mph  10 mph  0.00"  98%  71%  50°F  42°F  27.87"
Sat 10:00 PM  51.4°F  52°F  4 mph NW  2 mph  9 mph  0.00"  98%  70%  51°F  42°F  27.86"
Sat 09:00 PM  51.8°F  53°F  calm  2 mph  6 mph  0.00"  98%  67%  51°F  42°F  27.83"
Sat 08:00 PM  52.0°F  55°F  calm  2 mph  9 mph  0.00"  98%  64%  51°F  42°F  27.81"
Sat 07:00 PM  52.9°F  56°F  4 mph SW  3 mph  6 mph  0.00"  97%  60%  52°F  42°F  27.78"
Sat 06:00 PM  53.2°F  58°F  1 mph NW  3 mph  5 mph  0.00"  94%  56%  52°F  42°F  27.75"
Sat 05:00 PM  54.3°F  63°F  2 mph NW  4 mph  8 mph  0.00"  93%  48%  52°F  42°F  27.74"
Sat 04:00 PM  54.8°F  65°F  4 mph W  5 mph  9 mph  0.00"  91%  42%  52°F  41°F  27.73"
Sat 03:00 PM  58.2°F  67°F  3 mph SW  5 mph  8 mph  0.00"  84%  41%  53°F  41°F  27.71"

  1. Current weather data. No green row appears if the current weather data is also the high or low for the current day.
  2. High temperature for the current day.
  3. Low temperature for the current day.

The Moreno Valley, California weather pages are a service of WeatherCurrents. Moreno Valley is located in Southern California's Inland Empire, east of Riverside and north of Perris, along the State Route 60 freeway.
Copyright ©Mon Feb 20 02:55:00 PST 2017  WeatherCurrents. All rights reserved. - Submit questions and comments - Privacy Policy

This page automatically refreshes every 10 minutes.